sensor_id;sensor_type;location;lat;lon;timestamp;P1;durP1;ratioP1;P2;durP2;ratioP2
789;SDS011;378;48.844;9.156;2023-04-24T00:01:29;2.58;;;0.70;;
789;SDS011;378;48.844;9.156;2023-04-24T00:03:56;1.40;;;0.68;;
789;SDS011;378;48.844;9.156;2023-04-24T00:06:24;3.30;;;1.15;;
789;SDS011;378;48.844;9.156;2023-04-24T00:08:59;3.97;;;0.85;;
789;SDS011;378;48.844;9.156;2023-04-24T00:11:27;0.60;;;0.60;;
789;SDS011;378;48.844;9.156;2023-04-24T00:13:54;3.50;;;0.95;;
789;SDS011;378;48.844;9.156;2023-04-24T00:16:21;1.05;;;0.75;;
789;SDS011;378;48.844;9.156;2023-04-24T00:18:48;3.80;;;0.93;;
789;SDS011;378;48.844;9.156;2023-04-24T00:21:17;6.13;;;0.85;;
789;SDS011;378;48.844;9.156;2023-04-24T00:23:44;1.08;;;0.60;;
789;SDS011;378;48.844;9.156;2023-04-24T00:26:12;0.80;;;0.60;;
789;SDS011;378;48.844;9.156;2023-04-24T00:28:39;0.90;;;0.60;;
789;SDS011;378;48.844;9.156;2023-04-24T00:31:06;2.38;;;0.60;;
789;SDS011;378;48.844;9.156;2023-04-24T00:33:33;1.40;;;0.80;;
789;SDS011;378;48.844;9.156;2023-04-24T00:36:00;3.30;;;0.70;;
789;SDS011;378;48.844;9.156;2023-04-24T00:38:27;1.83;;;0.70;;
789;SDS011;378;48.844;9.156;2023-04-24T00:40:53;2.03;;;0.60;;
789;SDS011;378;48.844;9.156;2023-04-24T00:43:22;1.13;;;0.63;;
789;SDS011;378;48.844;9.156;2023-04-24T00:45:49;1.55;;;0.60;;
789;SDS011;378;48.844;9.156;2023-04-24T00:48:15;1.15;;;0.50;;
789;SDS011;378;48.844;9.156;2023-04-24T00:50:42;1.42;;;0.70;;
789;SDS011;378;48.844;9.156;2023-04-24T00:53:10;2.47;;;0.68;;
789;SDS011;378;48.844;9.156;2023-04-24T00:55:37;0.98;;;0.55;;
789;SDS011;378;48.844;9.156;2023-04-24T00:58:04;1.88;;;0.80;;
789;SDS011;378;48.844;9.156;2023-04-24T01:00:32;0.40;;;0.40;;
789;SDS011;378;48.844;9.156;2023-04-24T01:02:59;2.92;;;0.60;;
789;SDS011;378;48.844;9.156;2023-04-24T01:05:30;3.78;;;0.70;;
789;SDS011;378;48.844;9.156;2023-04-24T01:07:58;2.30;;;0.70;;
789;SDS011;378;48.844;9.156;2023-04-24T01:10:25;1.88;;;0.88;;
789;SDS011;378;48.844;9.156;2023-04-24T01:12:55;1.38;;;0.63;;
789;SDS011;378;48.844;9.156;2023-04-24T01:15:22;1.90;;;0.70;;
789;SDS011;378;48.844;9.156;2023-04-24T01:17:50;1.85;;;0.60;;
789;SDS011;378;48.844;9.156;2023-04-24T01:20:17;2.72;;;0.75;;
789;SDS011;378;48.844;9.156;2023-04-24T01:22:47;5.07;;;0.80;;
789;SDS011;378;48.844;9.156;2023-04-24T01:25:14;0.82;;;0.50;;
789;SDS011;378;48.844;9.156;2023-04-24T01:27:41;2.40;;;0.60;;
789;SDS011;378;48.844;9.156;2023-04-24T01:30:08;2.20;;;0.60;;
789;SDS011;378;48.844;9.156;2023-04-24T01:32:36;2.05;;;0.70;;
789;SDS011;378;48.844;9.156;2023-04-24T01:35:04;1.30;;;0.60;;
789;SDS011;378;48.844;9.156;2023-04-24T01:37:32;0.93;;;0.77;;
789;SDS011;378;48.844;9.156;2023-04-24T01:40:00;0.60;;;0.60;;
789;SDS011;378;48.844;9.156;2023-04-24T01:42:27;0.90;;;0.63;;
789;SDS011;378;48.844;9.156;2023-04-24T01:44:54;1.35;;;0.60;;
789;SDS011;378;48.844;9.156;2023-04-24T01:47:21;1.40;;;0.60;;
789;SDS011;378;48.844;9.156;2023-04-24T01:49:49;1.10;;;0.50;;
789;SDS011;378;48.844;9.156;2023-04-24T01:52:16;2.95;;;0.70;;
789;SDS011;378;48.844;9.156;2023-04-24T01:54:43;2.40;;;0.73;;
789;SDS011;378;48.844;9.156;2023-04-24T01:57:12;2.33;;;0.68;;
789;SDS011;378;48.844;9.156;2023-04-24T01:59:40;1.83;;;0.60;;
789;SDS011;378;48.844;9.156;2023-04-24T02:02:07;0.82;;;0.50;;
789;SDS011;378;48.844;9.156;2023-04-24T02:04:34;2.20;;;0.60;;
789;SDS011;378;48.844;9.156;2023-04-24T02:07:01;0.70;;;0.60;;
789;SDS011;378;48.844;9.156;2023-04-24T02:09:28;3.40;;;1.00;;
789;SDS011;378;48.844;9.156;2023-04-24T02:11:54;2.88;;;0.60;;
789;SDS011;378;48.844;9.156;2023-04-24T02:14:23;1.55;;;0.60;;
789;SDS011;378;48.844;9.156;2023-04-24T02:16:50;1.88;;;0.65;;
789;SDS011;378;48.844;9.156;2023-04-24T02:19:17;1.02;;;0.60;;
789;SDS011;378;48.844;9.156;2023-04-24T02:21:43;1.58;;;0.88;;
789;SDS011;378;48.844;9.156;2023-04-24T02:24:10;2.17;;;0.85;;
789;SDS011;378;48.844;9.156;2023-04-24T02:26:37;2.60;;;0.70;;
789;SDS011;378;48.844;9.156;2023-04-24T02:29:04;1.45;;;0.80;;
789;SDS011;378;48.844;9.156;2023-04-24T02:31:32;1.10;;;0.70;;
789;SDS011;378;48.844;9.156;2023-04-24T02:33:59;2.05;;;0.90;;
789;SDS011;378;48.844;9.156;2023-04-24T02:36:26;2.58;;;0.57;;
789;SDS011;378;48.844;9.156;2023-04-24T02:38:53;2.50;;;0.60;;
789;SDS011;378;48.844;9.156;2023-04-24T02:41:19;4.78;;;1.23;;
789;SDS011;378;48.844;9.156;2023-04-24T02:43:46;2.17;;;0.52;;
789;SDS011;378;48.844;9.156;2023-04-24T02:46:13;3.28;;;0.63;;
789;SDS011;378;48.844;9.156;2023-04-24T02:48:41;2.75;;;0.90;;
789;SDS011;378;48.844;9.156;2023-04-24T02:51:08;0.60;;;0.60;;
789;SDS011;378;48.844;9.156;2023-04-24T02:53:35;0.75;;;0.52;;
789;SDS011;378;48.844;9.156;2023-04-24T02:56:02;1.40;;;0.90;;
789;SDS011;378;48.844;9.156;2023-04-24T02:58:29;4.13;;;0.90;;
789;SDS011;378;48.844;9.156;2023-04-24T03:00:55;5.70;;;0.98;;
789;SDS011;378;48.844;9.156;2023-04-24T03:03:22;2.78;;;0.70;;
789;SDS011;378;48.844;9.156;2023-04-24T03:05:51;5.63;;;1.00;;
789;SDS011;378;48.844;9.156;2023-04-24T03:08:18;2.00;;;0.70;;
789;SDS011;378;48.844;9.156;2023-04-24T03:10:45;3.75;;;0.90;;
789;SDS011;378;48.844;9.156;2023-04-24T03:13:12;4.10;;;1.00;;
789;SDS011;378;48.844;9.156;2023-04-24T03:15:39;1.85;;;0.70;;
789;SDS011;378;48.844;9.156;2023-04-24T03:18:06;4.05;;;0.80;;
789;SDS011;378;48.844;9.156;2023-04-24T03:20:32;1.17;;;0.65;;
789;SDS011;378;48.844;9.156;2023-04-24T03:23:01;1.98;;;0.70;;
789;SDS011;378;48.844;9.156;2023-04-24T03:25:28;0.90;;;0.80;;
789;SDS011;378;48.844;9.156;2023-04-24T03:27:54;2.03;;;0.77;;
789;SDS011;378;48.844;9.156;2023-04-24T03:30:21;5.22;;;0.95;;
789;SDS011;378;48.844;9.156;2023-04-24T03:32:48;1.77;;;0.90;;
789;SDS011;378;48.844;9.156;2023-04-24T03:35:15;5.05;;;1.10;;
789;SDS011;378;48.844;9.156;2023-04-24T03:37:42;1.13;;;0.80;;
789;SDS011;378;48.844;9.156;2023-04-24T03:40:10;2.17;;;0.70;;
789;SDS011;378;48.844;9.156;2023-04-24T03:42:37;2.45;;;1.00;;
789;SDS011;378;48.844;9.156;2023-04-24T03:45:04;1.77;;;0.80;;
789;SDS011;378;48.844;9.156;2023-04-24T03:47:32;2.13;;;0.95;;
789;SDS011;378;48.844;9.156;2023-04-24T03:49:59;2.80;;;0.70;;
789;SDS011;378;48.844;9.156;2023-04-24T03:52:25;2.45;;;1.00;;
789;SDS011;378;48.844;9.156;2023-04-24T03:54:52;3.17;;;1.02;;
789;SDS011;378;48.844;9.156;2023-04-24T03:57:21;3.92;;;0.65;;
789;SDS011;378;48.844;9.156;2023-04-24T03:59:48;1.45;;;0.80;;
789;SDS011;378;48.844;9.156;2023-04-24T04:02:15;2.03;;;0.80;;
789;SDS011;378;48.844;9.156;2023-04-24T04:04:42;3.72;;;0.85;;
789;SDS011;378;48.844;9.156;2023-04-24T04:07:09;2.22;;;0.95;;
789;SDS011;378;48.844;9.156;2023-04-24T04:09:36;1.58;;;0.60;;
789;SDS011;378;48.844;9.156;2023-04-24T04:12:03;2.03;;;0.70;;
789;SDS011;378;48.844;9.156;2023-04-24T04:14:31;0.75;;;0.63;;
789;SDS011;378;48.844;9.156;2023-04-24T04:16:58;2.08;;;0.70;;
789;SDS011;378;48.844;9.156;2023-04-24T04:19:25;1.88;;;1.10;;
789;SDS011;378;48.844;9.156;2023-04-24T04:21:52;5.45;;;1.00;;
789;SDS011;378;48.844;9.156;2023-04-24T04:24:21;5.20;;;0.90;;
789;SDS011;378;48.844;9.156;2023-04-24T04:26:49;2.47;;;0.73;;
789;SDS011;378;48.844;9.156;2023-04-24T04:29:16;3.25;;;1.00;;
789;SDS011;378;48.844;9.156;2023-04-24T04:31:44;2.65;;;1.23;;
789;SDS011;378;48.844;9.156;2023-04-24T04:34:11;4.13;;;1.30;;
789;SDS011;378;48.844;9.156;2023-04-24T04:36:39;3.83;;;1.30;;
789;SDS011;378;48.844;9.156;2023-04-24T04:39:06;2.10;;;1.17;;
789;SDS011;378;48.844;9.156;2023-04-24T04:41:33;1.92;;;1.10;;
789;SDS011;378;48.844;9.156;2023-04-24T04:44:00;3.10;;;1.35;;
789;SDS011;378;48.844;9.156;2023-04-24T04:46:29;2.22;;;1.33;;
789;SDS011;378;48.844;9.156;2023-04-24T04:48:59;4.13;;;1.30;;
789;SDS011;378;48.844;9.156;2023-04-24T04:51:26;1.92;;;1.30;;
789;SDS011;378;48.844;9.156;2023-04-24T04:53:53;3.70;;;1.40;;
789;SDS011;378;48.844;9.156;2023-04-24T04:56:20;1.83;;;1.40;;
789;SDS011;378;48.844;9.156;2023-04-24T04:58:47;3.88;;;1.60;;
789;SDS011;378;48.844;9.156;2023-04-24T05:01:14;4.22;;;1.40;;
789;SDS011;378;48.844;9.156;2023-04-24T05:03:41;1.88;;;1.40;;
789;SDS011;378;48.844;9.156;2023-04-24T05:06:09;1.90;;;1.50;;
789;SDS011;378;48.844;9.156;2023-04-24T05:08:36;3.63;;;1.42;;
789;SDS011;378;48.844;9.156;2023-04-24T05:11:03;2.38;;;1.40;;
789;SDS011;378;48.844;9.156;2023-04-24T05:13:29;2.90;;;1.45;;
789;SDS011;378;48.844;9.156;2023-04-24T05:15:57;3.50;;;1.50;;
789;SDS011;378;48.844;9.156;2023-04-24T05:18:24;2.15;;;1.30;;
789;SDS011;378;48.844;9.156;2023-04-24T05:20:51;4.43;;;1.70;;
789;SDS011;378;48.844;9.156;2023-04-24T05:23:19;1.58;;;1.20;;
789;SDS011;378;48.844;9.156;2023-04-24T05:25:46;1.83;;;1.08;;
789;SDS011;378;48.844;9.156;2023-04-24T05:28:13;1.35;;;1.10;;
789;SDS011;378;48.844;9.156;2023-04-24T05:30:40;1.67;;;1.20;;
789;SDS011;378;48.844;9.156;2023-04-24T05:33:07;1.42;;;1.27;;
789;SDS011;378;48.844;9.156;2023-04-24T05:35:34;3.75;;;1.63;;
789;SDS011;378;48.844;9.156;2023-04-24T05:38:02;7.40;;;1.50;;
789;SDS011;378;48.844;9.156;2023-04-24T05:40:30;3.60;;;1.80;;
789;SDS011;378;48.844;9.156;2023-04-24T05:42:57;2.63;;;1.50;;
789;SDS011;378;48.844;9.156;2023-04-24T05:45:24;2.45;;;1.60;;
789;SDS011;378;48.844;9.156;2023-04-24T05:47:52;3.35;;;1.50;;
789;SDS011;378;48.844;9.156;2023-04-24T05:50:18;2.85;;;1.40;;
789;SDS011;378;48.844;9.156;2023-04-24T05:52:45;1.73;;;1.30;;
789;SDS011;378;48.844;9.156;2023-04-24T05:55:12;4.95;;;1.77;;
789;SDS011;378;48.844;9.156;2023-04-24T05:57:43;2.13;;;1.60;;
789;SDS011;378;48.844;9.156;2023-04-24T06:00:11;4.45;;;1.63;;
789;SDS011;378;48.844;9.156;2023-04-24T06:02:38;2.75;;;1.50;;
789;SDS011;378;48.844;9.156;2023-04-24T06:05:05;4.53;;;1.50;;
789;SDS011;378;48.844;9.156;2023-04-24T06:07:33;2.15;;;1.35;;
789;SDS011;378;48.844;9.156;2023-04-24T06:10:00;2.60;;;1.50;;
789;SDS011;378;48.844;9.156;2023-04-24T06:12:27;1.30;;;1.20;;
789;SDS011;378;48.844;9.156;2023-04-24T06:14:55;6.15;;;1.60;;
789;SDS011;378;48.844;9.156;2023-04-24T06:17:22;3.65;;;1.40;;
789;SDS011;378;48.844;9.156;2023-04-24T06:19:49;2.88;;;1.50;;
789;SDS011;378;48.844;9.156;2023-04-24T06:22:16;3.13;;;1.30;;
789;SDS011;378;48.844;9.156;2023-04-24T06:24:43;1.90;;;1.30;;
789;SDS011;378;48.844;9.156;2023-04-24T06:27:10;4.22;;;1.40;;
789;SDS011;378;48.844;9.156;2023-04-24T06:29:37;2.25;;;1.33;;
789;SDS011;378;48.844;9.156;2023-04-24T06:32:05;6.05;;;1.45;;
789;SDS011;378;48.844;9.156;2023-04-24T06:34:32;2.50;;;1.58;;
789;SDS011;378;48.844;9.156;2023-04-24T06:37:00;2.60;;;1.42;;
789;SDS011;378;48.844;9.156;2023-04-24T06:39:27;2.28;;;1.23;;
789;SDS011;378;48.844;9.156;2023-04-24T06:41:54;1.88;;;1.48;;
789;SDS011;378;48.844;9.156;2023-04-24T06:44:21;3.13;;;1.70;;
789;SDS011;378;48.844;9.156;2023-04-24T06:46:47;4.43;;;1.60;;
789;SDS011;378;48.844;9.156;2023-04-24T06:49:16;2.15;;;1.50;;
789;SDS011;378;48.844;9.156;2023-04-24T06:51:42;2.08;;;1.40;;
789;SDS011;378;48.844;9.156;2023-04-24T06:54:10;2.80;;;1.27;;
789;SDS011;378;48.844;9.156;2023-04-24T06:56:37;2.35;;;1.45;;
789;SDS011;378;48.844;9.156;2023-04-24T06:59:04;1.63;;;1.10;;
789;SDS011;378;48.844;9.156;2023-04-24T07:01:30;2.80;;;1.17;;
789;SDS011;378;48.844;9.156;2023-04-24T07:03:57;4.88;;;1.33;;
789;SDS011;378;48.844;9.156;2023-04-24T07:06:25;1.42;;;1.17;;
789;SDS011;378;48.844;9.156;2023-04-24T07:08:52;2.80;;;1.20;;
789;SDS011;378;48.844;9.156;2023-04-24T07:11:26;3.35;;;1.13;;
789;SDS011;378;48.844;9.156;2023-04-24T07:13:54;5.20;;;1.35;;
789;SDS011;378;48.844;9.156;2023-04-24T07:16:21;1.20;;;1.08;;
789;SDS011;378;48.844;9.156;2023-04-24T07:18:48;1.58;;;1.13;;
789;SDS011;378;48.844;9.156;2023-04-24T07:21:15;1.77;;;1.30;;
789;SDS011;378;48.844;9.156;2023-04-24T07:23:43;2.50;;;1.05;;
789;SDS011;378;48.844;9.156;2023-04-24T07:26:10;2.67;;;1.10;;
789;SDS011;378;48.844;9.156;2023-04-24T07:28:37;6.72;;;1.42;;
789;SDS011;378;48.844;9.156;2023-04-24T07:31:03;2.35;;;1.20;;
789;SDS011;378;48.844;9.156;2023-04-24T07:33:30;2.72;;;1.10;;
789;SDS011;378;48.844;9.156;2023-04-24T07:35:58;1.20;;;0.90;;
789;SDS011;378;48.844;9.156;2023-04-24T07:38:25;2.42;;;1.20;;
789;SDS011;378;48.844;9.156;2023-04-24T07:40:53;2.85;;;1.30;;
789;SDS011;378;48.844;9.156;2023-04-24T07:43:20;1.75;;;1.10;;
789;SDS011;378;48.844;9.156;2023-04-24T07:45:48;1.90;;;1.10;;
789;SDS011;378;48.844;9.156;2023-04-24T07:48:16;6.72;;;1.35;;
789;SDS011;378;48.844;9.156;2023-04-24T07:50:43;4.18;;;1.20;;
789;SDS011;378;48.844;9.156;2023-04-24T07:53:10;2.58;;;1.20;;
789;SDS011;378;48.844;9.156;2023-04-24T07:55:37;1.50;;;0.98;;
789;SDS011;378;48.844;9.156;2023-04-24T07:58:05;4.00;;;1.30;;
789;SDS011;378;48.844;9.156;2023-04-24T08:00:32;2.42;;;0.93;;
789;SDS011;378;48.844;9.156;2023-04-24T08:02:59;4.50;;;1.20;;
789;SDS011;378;48.844;9.156;2023-04-24T08:05:27;1.90;;;0.95;;
789;SDS011;378;48.844;9.156;2023-04-24T08:07:54;3.75;;;1.10;;
789;SDS011;378;48.844;9.156;2023-04-24T08:10:21;5.88;;;1.00;;
789;SDS011;378;48.844;9.156;2023-04-24T08:12:48;2.38;;;0.90;;
789;SDS011;378;48.844;9.156;2023-04-24T08:15:16;2.97;;;0.93;;
789;SDS011;378;48.844;9.156;2023-04-24T08:17:43;1.48;;;0.90;;
789;SDS011;378;48.844;9.156;2023-04-24T08:20:10;2.17;;;1.10;;
789;SDS011;378;48.844;9.156;2023-04-24T08:22:39;2.30;;;1.27;;
789;SDS011;378;48.844;9.156;2023-04-24T08:25:06;1.88;;;1.27;;
789;SDS011;378;48.844;9.156;2023-04-24T08:27:34;3.30;;;1.20;;
789;SDS011;378;48.844;9.156;2023-04-24T08:30:01;4.05;;;1.17;;
789;SDS011;378;48.844;9.156;2023-04-24T08:32:30;1.10;;;1.00;;
789;SDS011;378;48.844;9.156;2023-04-24T08:34:57;2.45;;;1.20;;
789;SDS011;378;48.844;9.156;2023-04-24T08:37:24;1.30;;;1.00;;
789;SDS011;378;48.844;9.156;2023-04-24T08:39:52;5.90;;;1.10;;
789;SDS011;378;48.844;9.156;2023-04-24T08:42:20;5.93;;;1.30;;
789;SDS011;378;48.844;9.156;2023-04-24T08:44:48;3.33;;;1.25;;
789;SDS011;378;48.844;9.156;2023-04-24T08:47:16;1.50;;;1.10;;
789;SDS011;378;48.844;9.156;2023-04-24T08:49:45;2.03;;;1.05;;
789;SDS011;378;48.844;9.156;2023-04-24T08:52:16;2.97;;;1.08;;
789;SDS011;378;48.844;9.156;2023-04-24T08:54:45;2.15;;;1.10;;
789;SDS011;378;48.844;9.156;2023-04-24T08:57:12;0.80;;;0.80;;
789;SDS011;378;48.844;9.156;2023-04-24T08:59:40;3.58;;;1.10;;
789;SDS011;378;48.844;9.156;2023-04-24T09:02:10;1.73;;;1.05;;
789;SDS011;378;48.844;9.156;2023-04-24T09:04:37;1.00;;;0.95;;
789;SDS011;378;48.844;9.156;2023-04-24T09:07:06;1.58;;;0.95;;
789;SDS011;378;48.844;9.156;2023-04-24T09:09:34;2.28;;;0.90;;
789;SDS011;378;48.844;9.156;2023-04-24T09:12:02;0.70;;;0.70;;
789;SDS011;378;48.844;9.156;2023-04-24T09:14:31;2.05;;;1.00;;
789;SDS011;378;48.844;9.156;2023-04-24T09:17:01;4.50;;;1.20;;
789;SDS011;378;48.844;9.156;2023-04-24T09:19:28;1.27;;;0.80;;
789;SDS011;378;48.844;9.156;2023-04-24T09:21:55;1.15;;;0.95;;
789;SDS011;378;48.844;9.156;2023-04-24T09:24:23;2.63;;;1.00;;
789;SDS011;378;48.844;9.156;2023-04-24T09:26:55;3.13;;;1.20;;
789;SDS011;378;48.844;9.156;2023-04-24T09:29:23;5.15;;;0.90;;
789;SDS011;378;48.844;9.156;2023-04-24T09:31:51;1.30;;;0.88;;
789;SDS011;378;48.844;9.156;2023-04-24T09:34:21;2.85;;;0.93;;
789;SDS011;378;48.844;9.156;2023-04-24T09:36:49;1.13;;;1.00;;
789;SDS011;378;48.844;9.156;2023-04-24T09:39:16;1.70;;;0.90;;
789;SDS011;378;48.844;9.156;2023-04-24T09:41:47;1.58;;;1.10;;
789;SDS011;378;48.844;9.156;2023-04-24T09:44:15;3.03;;;1.17;;
789;SDS011;378;48.844;9.156;2023-04-24T09:46:43;2.75;;;0.90;;
789;SDS011;378;48.844;9.156;2023-04-24T09:49:15;2.33;;;1.00;;
789;SDS011;378;48.844;9.156;2023-04-24T09:51:43;2.88;;;0.90;;
789;SDS011;378;48.844;9.156;2023-04-24T09:54:13;1.30;;;0.80;;
789;SDS011;378;48.844;9.156;2023-04-24T09:56:42;1.08;;;0.90;;
789;SDS011;378;48.844;9.156;2023-04-24T09:59:12;1.38;;;0.75;;
789;SDS011;378;48.844;9.156;2023-04-24T10:01:40;2.50;;;0.80;;
789;SDS011;378;48.844;9.156;2023-04-24T10:04:18;1.67;;;0.85;;
789;SDS011;378;48.844;9.156;2023-04-24T10:06:46;1.60;;;0.80;;
789;SDS011;378;48.844;9.156;2023-04-24T10:09:15;1.42;;;0.88;;
789;SDS011;378;48.844;9.156;2023-04-24T10:11:43;0.82;;;0.70;;
789;SDS011;378;48.844;9.156;2023-04-24T10:14:13;1.42;;;0.80;;
789;SDS011;378;48.844;9.156;2023-04-24T10:16:42;0.90;;;0.70;;
789;SDS011;378;48.844;9.156;2023-04-24T10:19:09;1.33;;;0.80;;
789;SDS011;378;48.844;9.156;2023-04-24T10:21:38;2.80;;;0.98;;
789;SDS011;378;48.844;9.156;2023-04-24T10:24:11;1.67;;;0.82;;
789;SDS011;378;48.844;9.156;2023-04-24T10:26:38;2.22;;;0.82;;
789;SDS011;378;48.844;9.156;2023-04-24T10:29:06;2.72;;;0.90;;
789;SDS011;378;48.844;9.156;2023-04-24T10:31:36;3.05;;;0.93;;
789;SDS011;378;48.844;9.156;2023-04-24T10:34:04;3.28;;;0.95;;
789;SDS011;378;48.844;9.156;2023-04-24T10:36:31;4.43;;;0.95;;
789;SDS011;378;48.844;9.156;2023-04-24T10:39:01;1.50;;;1.00;;
789;SDS011;378;48.844;9.156;2023-04-24T10:41:30;1.05;;;0.90;;
789;SDS011;378;48.844;9.156;2023-04-24T10:44:06;1.45;;;1.15;;
789;SDS011;378;48.844;9.156;2023-04-24T10:46:33;1.80;;;1.00;;
789;SDS011;378;48.844;9.156;2023-04-24T10:49:03;1.73;;;0.93;;
789;SDS011;378;48.844;9.156;2023-04-24T10:51:44;3.60;;;1.10;;
789;SDS011;378;48.844;9.156;2023-04-24T10:54:23;1.05;;;0.98;;
789;SDS011;378;48.844;9.156;2023-04-24T10:56:51;1.70;;;1.08;;
789;SDS011;378;48.844;9.156;2023-04-24T10:59:26;2.38;;;0.90;;
789;SDS011;378;48.844;9.156;2023-04-24T11:02:03;0.80;;;0.80;;
789;SDS011;378;48.844;9.156;2023-04-24T11:04:34;1.00;;;0.77;;
789;SDS011;378;48.844;9.156;2023-04-24T11:07:02;2.30;;;0.95;;
789;SDS011;378;48.844;9.156;2023-04-24T11:09:29;0.95;;;0.80;;
789;SDS011;378;48.844;9.156;2023-04-24T11:12:04;0.80;;;0.80;;
789;SDS011;378;48.844;9.156;2023-04-24T11:17:29;0.80;;;0.77;;
789;SDS011;378;48.844;9.156;2023-04-24T11:20:01;4.88;;;0.93;;
789;SDS011;378;48.844;9.156;2023-04-24T11:22:30;1.67;;;1.00;;
789;SDS011;378;48.844;9.156;2023-04-24T11:25:00;3.08;;;1.00;;
789;SDS011;378;48.844;9.156;2023-04-24T11:27:29;1.15;;;0.95;;
789;SDS011;378;48.844;9.156;2023-04-24T11:30:00;3.17;;;1.05;;
789;SDS011;378;48.844;9.156;2023-04-24T11:32:33;1.63;;;1.05;;
789;SDS011;378;48.844;9.156;2023-04-24T11:35:01;1.40;;;1.10;;
789;SDS011;378;48.844;9.156;2023-04-24T11:37:33;1.20;;;1.05;;
789;SDS011;378;48.844;9.156;2023-04-24T11:40:02;2.33;;;0.93;;
789;SDS011;378;48.844;9.156;2023-04-24T11:42:33;1.92;;;1.00;;
789;SDS011;378;48.844;9.156;2023-04-24T11:45:00;1.52;;;0.93;;
789;SDS011;378;48.844;9.156;2023-04-24T11:47:28;1.25;;;1.15;;
789;SDS011;378;48.844;9.156;2023-04-24T11:49:57;1.27;;;0.90;;
789;SDS011;378;48.844;9.156;2023-04-24T11:52:24;1.42;;;0.95;;
789;SDS011;378;48.844;9.156;2023-04-24T11:54:51;1.17;;;0.80;;
789;SDS011;378;48.844;9.156;2023-04-24T11:57:18;0.98;;;0.70;;
789;SDS011;378;48.844;9.156;2023-04-24T11:59:46;1.33;;;0.90;;
789;SDS011;378;48.844;9.156;2023-04-24T12:02:19;1.23;;;0.75;;
789;SDS011;378;48.844;9.156;2023-04-24T12:04:47;1.05;;;0.75;;
789;SDS011;378;48.844;9.156;2023-04-24T12:07:16;2.30;;;0.90;;
789;SDS011;378;48.844;9.156;2023-04-24T12:09:43;3.47;;;0.85;;
789;SDS011;378;48.844;9.156;2023-04-24T12:12:11;1.25;;;1.10;;
789;SDS011;378;48.844;9.156;2023-04-24T12:14:42;1.42;;;1.23;;
789;SDS011;378;48.844;9.156;2023-04-24T12:17:10;1.00;;;0.90;;
789;SDS011;378;48.844;9.156;2023-04-24T12:19:37;1.40;;;0.98;;
789;SDS011;378;48.844;9.156;2023-04-24T12:22:04;2.83;;;1.23;;
789;SDS011;378;48.844;9.156;2023-04-24T12:24:33;1.73;;;1.20;;
789;SDS011;378;48.844;9.156;2023-04-24T12:27:00;2.45;;;0.93;;
789;SDS011;378;48.844;9.156;2023-04-24T12:29:27;0.90;;;0.90;;
789;SDS011;378;48.844;9.156;2023-04-24T12:31:54;1.95;;;0.82;;
789;SDS011;378;48.844;9.156;2023-04-24T12:34:21;1.42;;;0.65;;
789;SDS011;378;48.844;9.156;2023-04-24T12:36:50;1.23;;;0.93;;
789;SDS011;378;48.844;9.156;2023-04-24T12:39:17;3.35;;;1.10;;
789;SDS011;378;48.844;9.156;2023-04-24T12:41:53;5.78;;;1.00;;
789;SDS011;378;48.844;9.156;2023-04-24T12:44:28;1.90;;;1.10;;
789;SDS011;378;48.844;9.156;2023-04-24T12:46:55;2.30;;;1.25;;
789;SDS011;378;48.844;9.156;2023-04-24T12:49:22;1.75;;;0.90;;
789;SDS011;378;48.844;9.156;2023-04-24T12:51:49;2.50;;;1.42;;
789;SDS011;378;48.844;9.156;2023-04-24T12:54:19;2.72;;;1.10;;
789;SDS011;378;48.844;9.156;2023-04-24T12:56:49;3.53;;;1.20;;
789;SDS011;378;48.844;9.156;2023-04-24T12:59:17;1.65;;;1.13;;
789;SDS011;378;48.844;9.156;2023-04-24T13:01:44;1.58;;;1.00;;
789;SDS011;378;48.844;9.156;2023-04-24T13:04:11;2.22;;;0.88;;
789;SDS011;378;48.844;9.156;2023-04-24T13:06:38;1.63;;;0.95;;
789;SDS011;378;48.844;9.156;2023-04-24T13:09:04;1.25;;;0.88;;
789;SDS011;378;48.844;9.156;2023-04-24T13:11:32;1.25;;;0.82;;
789;SDS011;378;48.844;9.156;2023-04-24T13:13:59;0.80;;;0.80;;
789;SDS011;378;48.844;9.156;2023-04-24T13:16:27;2.15;;;1.05;;
789;SDS011;378;48.844;9.156;2023-04-24T13:18:54;2.05;;;1.35;;
789;SDS011;378;48.844;9.156;2023-04-24T13:21:21;2.55;;;1.40;;
789;SDS011;378;48.844;9.156;2023-04-24T13:23:48;2.38;;;1.27;;
789;SDS011;378;48.844;9.156;2023-04-24T13:26:14;3.80;;;1.52;;
789;SDS011;378;48.844;9.156;2023-04-24T13:28:41;4.78;;;1.40;;
789;SDS011;378;48.844;9.156;2023-04-24T13:31:09;1.75;;;1.50;;
789;SDS011;378;48.844;9.156;2023-04-24T13:33:37;2.25;;;1.38;;
789;SDS011;378;48.844;9.156;2023-04-24T13:36:04;2.22;;;1.40;;
789;SDS011;378;48.844;9.156;2023-04-24T13:38:31;1.67;;;1.40;;
789;SDS011;378;48.844;9.156;2023-04-24T13:40:57;2.38;;;1.30;;
789;SDS011;378;48.844;9.156;2023-04-24T13:43:24;2.40;;;1.73;;
789;SDS011;378;48.844;9.156;2023-04-24T13:45:51;3.08;;;1.52;;
789;SDS011;378;48.844;9.156;2023-04-24T13:48:18;1.85;;;1.40;;
789;SDS011;378;48.844;9.156;2023-04-24T13:50:47;1.02;;;0.93;;
789;SDS011;378;48.844;9.156;2023-04-24T13:53:14;1.10;;;0.93;;
789;SDS011;378;48.844;9.156;2023-04-24T13:55:41;1.23;;;0.70;;
789;SDS011;378;48.844;9.156;2023-04-24T13:58:08;1.35;;;0.90;;
789;SDS011;378;48.844;9.156;2023-04-24T14:00:35;1.88;;;0.80;;
789;SDS011;378;48.844;9.156;2023-04-24T14:03:02;2.70;;;1.00;;
789;SDS011;378;48.844;9.156;2023-04-24T14:05:29;3.20;;;1.20;;
789;SDS011;378;48.844;9.156;2023-04-24T14:07:57;2.42;;;1.10;;
789;SDS011;378;48.844;9.156;2023-04-24T14:10:24;2.97;;;1.10;;
789;SDS011;378;48.844;9.156;2023-04-24T14:12:52;2.13;;;1.10;;
789;SDS011;378;48.844;9.156;2023-04-24T14:15:19;5.18;;;1.30;;
789;SDS011;378;48.844;9.156;2023-04-24T14:17:46;2.00;;;1.15;;
789;SDS011;378;48.844;9.156;2023-04-24T14:20:13;1.55;;;1.25;;
789;SDS011;378;48.844;9.156;2023-04-24T14:22:40;2.30;;;1.30;;
789;SDS011;378;48.844;9.156;2023-04-24T14:25:09;2.17;;;1.13;;
789;SDS011;378;48.844;9.156;2023-04-24T14:27:35;1.55;;;1.25;;
789;SDS011;378;48.844;9.156;2023-04-24T14:30:03;1.67;;;1.10;;
789;SDS011;378;48.844;9.156;2023-04-24T14:32:30;1.13;;;1.02;;
789;SDS011;378;48.844;9.156;2023-04-24T14:34:57;1.40;;;1.30;;
789;SDS011;378;48.844;9.156;2023-04-24T14:37:24;3.47;;;1.20;;
789;SDS011;378;48.844;9.156;2023-04-24T14:39:51;2.05;;;1.33;;
789;SDS011;378;48.844;9.156;2023-04-24T14:42:19;2.38;;;1.83;;
789;SDS011;378;48.844;9.156;2023-04-24T14:44:46;2.30;;;1.30;;
789;SDS011;378;48.844;9.156;2023-04-24T14:47:13;1.98;;;1.27;;
789;SDS011;378;48.844;9.156;2023-04-24T14:49:40;3.92;;;1.27;;
789;SDS011;378;48.844;9.156;2023-04-24T14:52:08;2.08;;;1.20;;
789;SDS011;378;48.844;9.156;2023-04-24T14:54:35;3.03;;;1.35;;
789;SDS011;378;48.844;9.156;2023-04-24T14:57:02;3.83;;;1.35;;
789;SDS011;378;48.844;9.156;2023-04-24T14:59:31;1.88;;;1.20;;
789;SDS011;378;48.844;9.156;2023-04-24T15:01:58;1.33;;;1.23;;
789;SDS011;378;48.844;9.156;2023-04-24T15:04:26;1.27;;;1.05;;
789;SDS011;378;48.844;9.156;2023-04-24T15:06:54;1.50;;;1.20;;
789;SDS011;378;48.844;9.156;2023-04-24T15:09:21;3.13;;;1.50;;
789;SDS011;378;48.844;9.156;2023-04-24T15:11:49;1.58;;;1.20;;
789;SDS011;378;48.844;9.156;2023-04-24T15:14:17;3.05;;;1.20;;
789;SDS011;378;48.844;9.156;2023-04-24T15:16:45;1.98;;;1.35;;
789;SDS011;378;48.844;9.156;2023-04-24T15:19:12;1.98;;;1.30;;
789;SDS011;378;48.844;9.156;2023-04-24T15:21:38;3.15;;;1.50;;
789;SDS011;378;48.844;9.156;2023-04-24T15:24:07;2.67;;;1.40;;
789;SDS011;378;48.844;9.156;2023-04-24T15:26:34;1.73;;;1.13;;
789;SDS011;378;48.844;9.156;2023-04-24T15:29:01;2.55;;;1.42;;
789;SDS011;378;48.844;9.156;2023-04-24T15:31:28;3.80;;;1.40;;
789;SDS011;378;48.844;9.156;2023-04-24T15:33:56;2.17;;;1.40;;
789;SDS011;378;48.844;9.156;2023-04-24T15:36:23;1.75;;;1.25;;
789;SDS011;378;48.844;9.156;2023-04-24T15:38:50;2.53;;;1.40;;
789;SDS011;378;48.844;9.156;2023-04-24T15:41:17;3.20;;;1.45;;
789;SDS011;378;48.844;9.156;2023-04-24T15:43:43;3.28;;;1.50;;
789;SDS011;378;48.844;9.156;2023-04-24T15:46:10;3.03;;;1.45;;
789;SDS011;378;48.844;9.156;2023-04-24T15:51:06;1.60;;;1.13;;
789;SDS011;378;48.844;9.156;2023-04-24T15:53:33;3.85;;;1.42;;